sensor_id;sensor_type;location;lat;lon;timestamp;P1;durP1;ratioP1;P2;durP2;ratioP2
64932;SDS011;51446;53.850;10.662;2023-02-10T00:01:28;44.42;;;20.30;;
64932;SDS011;51446;53.850;10.662;2023-02-10T00:03:53;49.63;;;20.83;;
64932;SDS011;51446;53.850;10.662;2023-02-10T00:06:20;40.97;;;19.38;;
64932;SDS011;51446;53.850;10.662;2023-02-10T00:08:50;51.13;;;19.70;;
64932;SDS011;51446;53.850;10.662;2023-02-10T00:11:17;40.60;;;19.50;;
64932;SDS011;51446;53.850;10.662;2023-02-10T00:13:43;42.47;;;19.48;;
64932;SDS011;51446;53.850;10.662;2023-02-10T00:16:13;51.30;;;20.70;;
64932;SDS011;51446;53.850;10.662;2023-02-10T00:18:39;42.95;;;19.08;;
64932;SDS011;51446;53.850;10.662;2023-02-10T00:21:06;41.00;;;18.70;;
64932;SDS011;51446;53.850;10.662;2023-02-10T00:23:37;46.67;;;18.90;;
64932;SDS011;51446;53.850;10.662;2023-02-10T00:26:06;45.47;;;18.97;;
64932;SDS011;51446;53.850;10.662;2023-02-10T00:28:33;48.77;;;20.67;;
64932;SDS011;51446;53.850;10.662;2023-02-10T00:30:59;48.40;;;18.77;;
64932;SDS011;51446;53.850;10.662;2023-02-10T00:33:24;45.83;;;19.23;;
64932;SDS011;51446;53.850;10.662;2023-02-10T00:35:50;41.73;;;19.43;;
64932;SDS011;51446;53.850;10.662;2023-02-10T00:38:15;45.13;;;19.73;;
64932;SDS011;51446;53.850;10.662;2023-02-10T00:40:40;47.43;;;19.30;;
64932;SDS011;51446;53.850;10.662;2023-02-10T00:43:06;42.47;;;18.77;;
64932;SDS011;51446;53.850;10.662;2023-02-10T00:45:31;44.97;;;18.83;;
64932;SDS011;51446;53.850;10.662;2023-02-10T00:47:56;37.40;;;18.73;;
64932;SDS011;51446;53.850;10.662;2023-02-10T00:50:21;41.13;;;18.57;;
64932;SDS011;51446;53.850;10.662;2023-02-10T00:52:47;44.13;;;19.47;;
64932;SDS011;51446;53.850;10.662;2023-02-10T00:55:12;44.47;;;19.97;;
64932;SDS011;51446;53.850;10.662;2023-02-10T00:57:37;43.30;;;19.23;;
64932;SDS011;51446;53.850;10.662;2023-02-10T01:00:03;52.97;;;19.73;;
64932;SDS011;51446;53.850;10.662;2023-02-10T01:02:28;45.78;;;19.13;;
64932;SDS011;51446;53.850;10.662;2023-02-10T01:04:54;46.73;;;18.60;;
64932;SDS011;51446;53.850;10.662;2023-02-10T01:07:19;42.17;;;18.10;;
64932;SDS011;51446;53.850;10.662;2023-02-10T01:09:44;40.53;;;17.90;;
64932;SDS011;51446;53.850;10.662;2023-02-10T01:12:09;43.27;;;17.67;;
64932;SDS011;51446;53.850;10.662;2023-02-10T01:14:35;33.87;;;17.40;;
64932;SDS011;51446;53.850;10.662;2023-02-10T01:17:00;41.43;;;19.10;;
64932;SDS011;51446;53.850;10.662;2023-02-10T01:19:25;40.13;;;19.93;;
64932;SDS011;51446;53.850;10.662;2023-02-10T01:21:51;37.43;;;16.97;;
64932;SDS011;51446;53.850;10.662;2023-02-10T01:24:16;45.53;;;17.70;;
64932;SDS011;51446;53.850;10.662;2023-02-10T01:26:41;42.67;;;17.23;;
64932;SDS011;51446;53.850;10.662;2023-02-10T01:29:06;36.20;;;18.08;;
64932;SDS011;51446;53.850;10.662;2023-02-10T01:31:32;42.88;;;18.20;;
64932;SDS011;51446;53.850;10.662;2023-02-10T01:33:57;42.00;;;17.63;;
64932;SDS011;51446;53.850;10.662;2023-02-10T01:36:23;46.13;;;17.95;;
64932;SDS011;51446;53.850;10.662;2023-02-10T01:38:49;45.13;;;17.52;;
64932;SDS011;51446;53.850;10.662;2023-02-10T01:41:16;35.85;;;16.10;;
64932;SDS011;51446;53.850;10.662;2023-02-10T01:43:54;42.85;;;17.63;;
64932;SDS011;51446;53.850;10.662;2023-02-10T01:46:29;37.38;;;17.85;;
64932;SDS011;51446;53.850;10.662;2023-02-10T01:48:57;41.27;;;16.50;;
64932;SDS011;51446;53.850;10.662;2023-02-10T01:51:28;42.83;;;18.10;;
64932;SDS011;51446;53.850;10.662;2023-02-10T01:53:58;46.25;;;16.92;;
64932;SDS011;51446;53.850;10.662;2023-02-10T01:56:24;51.33;;;18.03;;
64932;SDS011;51446;53.850;10.662;2023-02-10T01:58:49;42.77;;;16.53;;
64932;SDS011;51446;53.850;10.662;2023-02-10T02:01:14;44.97;;;18.13;;
64932;SDS011;51446;53.850;10.662;2023-02-10T02:03:41;42.20;;;16.80;;
64932;SDS011;51446;53.850;10.662;2023-02-10T02:06:07;47.00;;;16.47;;
64932;SDS011;51446;53.850;10.662;2023-02-10T02:08:33;39.40;;;17.13;;
64932;SDS011;51446;53.850;10.662;2023-02-10T02:11:01;42.63;;;17.30;;
64932;SDS011;51446;53.850;10.662;2023-02-10T02:16:38;38.50;;;16.08;;
64932;SDS011;51446;53.850;10.662;2023-02-10T02:20:18;49.40;;;16.83;;
64932;SDS011;51446;53.850;10.662;2023-02-10T02:28:24;42.47;;;16.80;;
64932;SDS011;51446;53.850;10.662;2023-02-10T02:36:51;39.45;;;16.60;;
64932;SDS011;51446;53.850;10.662;2023-02-10T02:39:21;40.45;;;16.40;;
64932;SDS011;51446;53.850;10.662;2023-02-10T02:41:47;41.93;;;16.07;;
64932;SDS011;51446;53.850;10.662;2023-02-10T02:44:30;45.15;;;16.45;;
64932;SDS011;51446;53.850;10.662;2023-02-10T02:47:00;38.47;;;16.67;;
64932;SDS011;51446;53.850;10.662;2023-02-10T02:49:59;43.00;;;16.05;;
64932;SDS011;51446;53.850;10.662;2023-02-10T02:58:07;36.10;;;16.10;;
64932;SDS011;51446;53.850;10.662;2023-02-10T03:00:56;39.47;;;15.57;;
64932;SDS011;51446;53.850;10.662;2023-02-10T03:03:29;39.58;;;15.90;;
64932;SDS011;51446;53.850;10.662;2023-02-10T03:05:57;43.60;;;15.37;;
64932;SDS011;51446;53.850;10.662;2023-02-10T03:08:24;41.22;;;15.60;;
64932;SDS011;51446;53.850;10.662;2023-02-10T03:10:49;36.47;;;15.93;;
64932;SDS011;51446;53.850;10.662;2023-02-10T03:13:14;40.03;;;14.63;;
64932;SDS011;51446;53.850;10.662;2023-02-10T03:15:39;41.03;;;14.77;;
64932;SDS011;51446;53.850;10.662;2023-02-10T03:18:05;34.00;;;15.07;;
64932;SDS011;51446;53.850;10.662;2023-02-10T03:20:30;38.47;;;14.70;;
64932;SDS011;51446;53.850;10.662;2023-02-10T03:22:55;36.13;;;14.27;;
64932;SDS011;51446;53.850;10.662;2023-02-10T03:25:20;41.50;;;14.60;;
64932;SDS011;51446;53.850;10.662;2023-02-10T03:27:46;39.70;;;13.87;;
64932;SDS011;51446;53.850;10.662;2023-02-10T03:30:11;37.33;;;14.03;;
64932;SDS011;51446;53.850;10.662;2023-02-10T03:32:36;34.50;;;13.85;;
64932;SDS011;51446;53.850;10.662;2023-02-10T03:35:02;41.60;;;15.33;;
64932;SDS011;51446;53.850;10.662;2023-02-10T03:37:27;37.40;;;16.07;;
64932;SDS011;51446;53.850;10.662;2023-02-10T03:39:52;38.43;;;14.27;;
64932;SDS011;51446;53.850;10.662;2023-02-10T03:42:17;34.20;;;15.23;;
64932;SDS011;51446;53.850;10.662;2023-02-10T03:44:43;32.30;;;13.53;;
64932;SDS011;51446;53.850;10.662;2023-02-10T03:47:08;31.23;;;13.00;;
64932;SDS011;51446;53.850;10.662;2023-02-10T03:49:33;32.90;;;13.17;;
64932;SDS011;51446;53.850;10.662;2023-02-10T03:51:59;34.23;;;13.87;;
64932;SDS011;51446;53.850;10.662;2023-02-10T03:54:24;33.50;;;13.13;;
64932;SDS011;51446;53.850;10.662;2023-02-10T03:56:49;42.87;;;12.73;;
64932;SDS011;51446;53.850;10.662;2023-02-10T03:59:14;38.77;;;12.60;;
64932;SDS011;51446;53.850;10.662;2023-02-10T04:01:40;38.27;;;12.57;;
64932;SDS011;51446;53.850;10.662;2023-02-10T04:04:05;29.93;;;12.60;;
64932;SDS011;51446;53.850;10.662;2023-02-10T04:06:30;36.53;;;13.83;;
64932;SDS011;51446;53.850;10.662;2023-02-10T04:08:55;28.27;;;13.37;;
64932;SDS011;51446;53.850;10.662;2023-02-10T04:11:21;26.80;;;12.90;;
64932;SDS011;51446;53.850;10.662;2023-02-10T04:13:46;39.83;;;13.90;;
64932;SDS011;51446;53.850;10.662;2023-02-10T04:16:12;38.83;;;13.07;;
64932;SDS011;51446;53.850;10.662;2023-02-10T04:18:39;33.85;;;13.80;;
64932;SDS011;51446;53.850;10.662;2023-02-10T04:21:06;33.15;;;14.05;;
64932;SDS011;51446;53.850;10.662;2023-02-10T04:23:33;42.78;;;14.20;;
64932;SDS011;51446;53.850;10.662;2023-02-10T04:25:59;38.53;;;12.50;;
64932;SDS011;51446;53.850;10.662;2023-02-10T04:28:25;31.10;;;13.57;;
64932;SDS011;51446;53.850;10.662;2023-02-10T04:30:52;28.73;;;12.38;;
64932;SDS011;51446;53.850;10.662;2023-02-10T04:33:18;32.55;;;13.05;;
64932;SDS011;51446;53.850;10.662;2023-02-10T04:35:44;34.20;;;12.23;;
64932;SDS011;51446;53.850;10.662;2023-02-10T04:38:12;36.53;;;12.85;;
64932;SDS011;51446;53.850;10.662;2023-02-10T04:40:37;36.53;;;12.57;;
64932;SDS011;51446;53.850;10.662;2023-02-10T04:43:04;34.05;;;13.07;;
64932;SDS011;51446;53.850;10.662;2023-02-10T04:45:29;35.67;;;13.33;;
64932;SDS011;51446;53.850;10.662;2023-02-10T04:47:55;31.63;;;12.50;;
64932;SDS011;51446;53.850;10.662;2023-02-10T04:50:20;38.07;;;12.23;;
64932;SDS011;51446;53.850;10.662;2023-02-10T04:52:45;33.83;;;12.60;;
64932;SDS011;51446;53.850;10.662;2023-02-10T04:55:10;36.20;;;13.10;;
64932;SDS011;51446;53.850;10.662;2023-02-10T04:57:36;31.87;;;13.10;;
64932;SDS011;51446;53.850;10.662;2023-02-10T05:00:01;33.63;;;13.50;;
64932;SDS011;51446;53.850;10.662;2023-02-10T05:02:26;34.50;;;12.53;;
64932;SDS011;51446;53.850;10.662;2023-02-10T05:04:51;32.50;;;11.83;;
64932;SDS011;51446;53.850;10.662;2023-02-10T05:07:17;37.83;;;13.37;;
64932;SDS011;51446;53.850;10.662;2023-02-10T05:09:42;31.20;;;12.67;;
64932;SDS011;51446;53.850;10.662;2023-02-10T05:12:07;36.07;;;12.93;;
64932;SDS011;51446;53.850;10.662;2023-02-10T05:14:32;31.90;;;12.60;;
64932;SDS011;51446;53.850;10.662;2023-02-10T05:16:58;41.30;;;14.10;;
64932;SDS011;51446;53.850;10.662;2023-02-10T05:19:23;36.77;;;13.43;;
64932;SDS011;51446;53.850;10.662;2023-02-10T05:21:48;34.40;;;13.17;;
64932;SDS011;51446;53.850;10.662;2023-02-10T05:24:13;31.42;;;13.00;;
64932;SDS011;51446;53.850;10.662;2023-02-10T05:26:39;35.33;;;13.20;;
64932;SDS011;51446;53.850;10.662;2023-02-10T05:29:04;37.08;;;13.60;;
64932;SDS011;51446;53.850;10.662;2023-02-10T05:31:29;31.38;;;12.88;;
64932;SDS011;51446;53.850;10.662;2023-02-10T05:33:54;36.13;;;12.60;;
64932;SDS011;51446;53.850;10.662;2023-02-10T05:36:20;32.15;;;12.85;;
64932;SDS011;51446;53.850;10.662;2023-02-10T05:38:46;32.97;;;13.57;;
64932;SDS011;51446;53.850;10.662;2023-02-10T05:41:29;34.72;;;13.10;;
64932;SDS011;51446;53.850;10.662;2023-02-10T05:43:55;31.33;;;13.10;;
64932;SDS011;51446;53.850;10.662;2023-02-10T05:46:20;39.23;;;14.37;;
64932;SDS011;51446;53.850;10.662;2023-02-10T05:48:45;42.23;;;16.27;;
64932;SDS011;51446;53.850;10.662;2023-02-10T05:51:10;41.50;;;15.73;;
64932;SDS011;51446;53.850;10.662;2023-02-10T05:53:36;43.90;;;14.80;;
64932;SDS011;51446;53.850;10.662;2023-02-10T05:56:01;42.97;;;14.60;;
64932;SDS011;51446;53.850;10.662;2023-02-10T05:58:26;34.90;;;15.30;;
64932;SDS011;51446;53.850;10.662;2023-02-10T06:00:52;47.72;;;15.85;;
64932;SDS011;51446;53.850;10.662;2023-02-10T06:03:18;34.43;;;15.23;;
64932;SDS011;51446;53.850;10.662;2023-02-10T06:05:43;37.33;;;14.63;;
64932;SDS011;51446;53.850;10.662;2023-02-10T06:08:10;44.15;;;16.27;;
64932;SDS011;51446;53.850;10.662;2023-02-10T06:10:35;41.43;;;15.20;;
64932;SDS011;51446;53.850;10.662;2023-02-10T06:13:00;43.50;;;16.20;;
64932;SDS011;51446;53.850;10.662;2023-02-10T06:15:26;37.63;;;15.27;;
64932;SDS011;51446;53.850;10.662;2023-02-10T06:17:51;46.87;;;14.77;;
64932;SDS011;51446;53.850;10.662;2023-02-10T06:20:16;37.67;;;14.70;;
64932;SDS011;51446;53.850;10.662;2023-02-10T06:22:41;43.47;;;15.27;;
64932;SDS011;51446;53.850;10.662;2023-02-10T06:25:07;30.93;;;13.53;;
64932;SDS011;51446;53.850;10.662;2023-02-10T06:27:32;33.27;;;13.60;;
64932;SDS011;51446;53.850;10.662;2023-02-10T06:29:57;46.73;;;13.83;;
64932;SDS011;51446;53.850;10.662;2023-02-10T06:32:22;44.73;;;14.27;;
64932;SDS011;51446;53.850;10.662;2023-02-10T06:34:48;32.43;;;14.70;;
64932;SDS011;51446;53.850;10.662;2023-02-10T06:37:13;46.67;;;14.70;;
64932;SDS011;51446;53.850;10.662;2023-02-10T06:39:38;37.33;;;14.37;;
64932;SDS011;51446;53.850;10.662;2023-02-10T06:42:05;35.28;;;14.00;;
64932;SDS011;51446;53.850;10.662;2023-02-10T06:44:30;34.70;;;15.43;;
64932;SDS011;51446;53.850;10.662;2023-02-10T06:46:55;41.50;;;15.27;;
64932;SDS011;51446;53.850;10.662;2023-02-10T06:49:20;46.67;;;15.30;;
64932;SDS011;51446;53.850;10.662;2023-02-10T06:51:46;46.80;;;15.60;;
64932;SDS011;51446;53.850;10.662;2023-02-10T06:54:11;39.80;;;14.73;;
64932;SDS011;51446;53.850;10.662;2023-02-10T06:56:36;43.17;;;15.77;;
64932;SDS011;51446;53.850;10.662;2023-02-10T06:59:01;41.50;;;15.80;;
64932;SDS011;51446;53.850;10.662;2023-02-10T07:01:27;40.93;;;16.23;;
64932;SDS011;51446;53.850;10.662;2023-02-10T07:03:53;41.60;;;16.47;;
64932;SDS011;51446;53.850;10.662;2023-02-10T07:06:18;44.05;;;15.65;;
64932;SDS011;51446;53.850;10.662;2023-02-10T07:08:43;37.40;;;16.53;;
64932;SDS011;51446;53.850;10.662;2023-02-10T07:11:09;35.25;;;15.18;;
64932;SDS011;51446;53.850;10.662;2023-02-10T07:13:34;33.87;;;15.77;;
64932;SDS011;51446;53.850;10.662;2023-02-10T07:16:00;39.33;;;16.43;;
64932;SDS011;51446;53.850;10.662;2023-02-10T07:18:25;35.37;;;15.27;;
64932;SDS011;51446;53.850;10.662;2023-02-10T07:20:52;37.72;;;14.63;;
64932;SDS011;51446;53.850;10.662;2023-02-10T07:23:18;35.07;;;15.70;;
64932;SDS011;51446;53.850;10.662;2023-02-10T07:25:43;40.17;;;15.00;;
64932;SDS011;51446;53.850;10.662;2023-02-10T07:28:08;45.57;;;17.37;;
64932;SDS011;51446;53.850;10.662;2023-02-10T07:30:34;48.40;;;16.40;;
64932;SDS011;51446;53.850;10.662;2023-02-10T07:32:59;43.37;;;15.20;;
64932;SDS011;51446;53.850;10.662;2023-02-10T07:35:24;39.92;;;14.63;;
64932;SDS011;51446;53.850;10.662;2023-02-10T07:37:50;35.27;;;14.17;;
64932;SDS011;51446;53.850;10.662;2023-02-10T07:40:15;40.77;;;14.47;;
64932;SDS011;51446;53.850;10.662;2023-02-10T07:42:40;43.13;;;14.97;;
64932;SDS011;51446;53.850;10.662;2023-02-10T07:45:06;31.70;;;15.10;;
64932;SDS011;51446;53.850;10.662;2023-02-10T07:47:31;36.55;;;14.52;;
64932;SDS011;51446;53.850;10.662;2023-02-10T07:49:57;34.93;;;13.57;;
64932;SDS011;51446;53.850;10.662;2023-02-10T07:52:22;36.70;;;13.77;;
64932;SDS011;51446;53.850;10.662;2023-02-10T07:54:48;35.13;;;14.93;;
64932;SDS011;51446;53.850;10.662;2023-02-10T07:57:13;32.35;;;13.40;;
64932;SDS011;51446;53.850;10.662;2023-02-10T07:59:38;37.80;;;14.25;;
64932;SDS011;51446;53.850;10.662;2023-02-10T08:02:04;27.92;;;13.18;;
64932;SDS011;51446;53.850;10.662;2023-02-10T08:04:31;35.83;;;13.68;;
64932;SDS011;51446;53.850;10.662;2023-02-10T08:06:56;33.20;;;13.23;;
64932;SDS011;51446;53.850;10.662;2023-02-10T08:09:21;35.30;;;13.57;;
64932;SDS011;51446;53.850;10.662;2023-02-10T08:11:47;31.67;;;13.38;;
64932;SDS011;51446;53.850;10.662;2023-02-10T08:14:12;37.13;;;12.93;;
64932;SDS011;51446;53.850;10.662;2023-02-10T08:16:38;31.50;;;13.33;;
64932;SDS011;51446;53.850;10.662;2023-02-10T08:19:03;43.87;;;15.20;;
64932;SDS011;51446;53.850;10.662;2023-02-10T08:21:28;37.30;;;12.70;;
64932;SDS011;51446;53.850;10.662;2023-02-10T08:23:54;30.80;;;13.67;;
64932;SDS011;51446;53.850;10.662;2023-02-10T08:26:23;32.00;;;13.50;;
64932;SDS011;51446;53.850;10.662;2023-02-10T08:28:48;36.83;;;13.63;;
64932;SDS011;51446;53.850;10.662;2023-02-10T08:31:15;33.55;;;12.23;;
64932;SDS011;51446;53.850;10.662;2023-02-10T08:33:40;32.92;;;13.50;;
64932;SDS011;51446;53.850;10.662;2023-02-10T08:36:07;29.08;;;12.73;;
64932;SDS011;51446;53.850;10.662;2023-02-10T08:38:34;38.35;;;13.48;;
64932;SDS011;51446;53.850;10.662;2023-02-10T08:41:00;37.00;;;13.98;;
64932;SDS011;51446;53.850;10.662;2023-02-10T08:43:25;32.70;;;12.73;;
64932;SDS011;51446;53.850;10.662;2023-02-10T08:45:50;29.53;;;12.57;;
64932;SDS011;51446;53.850;10.662;2023-02-10T08:48:16;35.47;;;12.70;;
64932;SDS011;51446;53.850;10.662;2023-02-10T08:50:42;39.78;;;13.38;;
64932;SDS011;51446;53.850;10.662;2023-02-10T08:53:07;34.97;;;13.17;;
64932;SDS011;51446;53.850;10.662;2023-02-10T08:55:32;36.30;;;13.20;;
64932;SDS011;51446;53.850;10.662;2023-02-10T08:57:58;34.23;;;13.00;;
64932;SDS011;51446;53.850;10.662;2023-02-10T09:00:23;31.90;;;12.27;;
64932;SDS011;51446;53.850;10.662;2023-02-10T09:02:49;32.63;;;12.40;;
64932;SDS011;51446;53.850;10.662;2023-02-10T09:05:15;27.55;;;12.00;;
64932;SDS011;51446;53.850;10.662;2023-02-10T09:07:40;35.22;;;13.15;;
64932;SDS011;51446;53.850;10.662;2023-02-10T09:10:06;31.40;;;12.50;;
64932;SDS011;51446;53.850;10.662;2023-02-10T09:12:35;28.67;;;11.55;;
64932;SDS011;51446;53.850;10.662;2023-02-10T09:15:00;30.83;;;11.33;;
64932;SDS011;51446;53.850;10.662;2023-02-10T09:17:25;30.00;;;12.03;;
64932;SDS011;51446;53.850;10.662;2023-02-10T09:19:50;30.53;;;13.13;;
64932;SDS011;51446;53.850;10.662;2023-02-10T09:22:16;29.50;;;12.47;;
64932;SDS011;51446;53.850;10.662;2023-02-10T09:24:43;29.75;;;11.20;;
64932;SDS011;51446;53.850;10.662;2023-02-10T09:27:11;28.63;;;10.97;;
64932;SDS011;51446;53.850;10.662;2023-02-10T09:29:37;34.60;;;12.20;;
64932;SDS011;51446;53.850;10.662;2023-02-10T09:32:02;31.73;;;10.90;;
64932;SDS011;51446;53.850;10.662;2023-02-10T09:34:28;27.37;;;10.83;;
64932;SDS011;51446;53.850;10.662;2023-02-10T09:36:54;23.23;;;10.82;;
64932;SDS011;51446;53.850;10.662;2023-02-10T09:39:22;32.97;;;11.60;;
64932;SDS011;51446;53.850;10.662;2023-02-10T09:41:53;29.35;;;11.27;;
64932;SDS011;51446;53.850;10.662;2023-02-10T09:44:26;25.30;;;11.90;;
64932;SDS011;51446;53.850;10.662;2023-02-10T09:47:05;35.20;;;12.00;;
64932;SDS011;51446;53.850;10.662;2023-02-10T09:49:52;33.92;;;11.07;;
64932;SDS011;51446;53.850;10.662;2023-02-10T09:52:43;27.77;;;11.40;;
64932;SDS011;51446;53.850;10.662;2023-02-10T09:55:33;27.60;;;11.45;;
64932;SDS011;51446;53.850;10.662;2023-02-10T10:00:51;30.73;;;12.52;;
64932;SDS011;51446;53.850;10.662;2023-02-10T10:03:26;30.35;;;11.48;;
64932;SDS011;51446;53.850;10.662;2023-02-10T10:06:03;28.98;;;11.65;;
64932;SDS011;51446;53.850;10.662;2023-02-10T10:08:34;28.75;;;11.80;;
64932;SDS011;51446;53.850;10.662;2023-02-10T10:11:21;35.13;;;14.83;;
64932;SDS011;51446;53.850;10.662;2023-02-10T10:13:50;33.63;;;14.75;;
64932;SDS011;51446;53.850;10.662;2023-02-10T10:18:52;32.13;;;13.07;;
64932;SDS011;51446;53.850;10.662;2023-02-10T10:21:29;30.70;;;13.15;;
64932;SDS011;51446;53.850;10.662;2023-02-10T10:29:20;30.08;;;11.88;;
64932;SDS011;51446;53.850;10.662;2023-02-10T10:31:46;34.28;;;13.00;;
64932;SDS011;51446;53.850;10.662;2023-02-10T10:34:18;30.52;;;14.18;;
64932;SDS011;51446;53.850;10.662;2023-02-10T10:36:47;34.20;;;13.68;;
64932;SDS011;51446;53.850;10.662;2023-02-10T10:39:15;33.40;;;13.00;;
64932;SDS011;51446;53.850;10.662;2023-02-10T10:41:43;33.42;;;13.50;;
64932;SDS011;51446;53.850;10.662;2023-02-10T10:44:10;31.00;;;13.82;;
64932;SDS011;51446;53.850;10.662;2023-02-10T10:46:41;36.67;;;14.57;;
64932;SDS011;51446;53.850;10.662;2023-02-10T10:49:11;38.30;;;14.93;;
64932;SDS011;51446;53.850;10.662;2023-02-10T10:51:37;37.23;;;14.83;;
64932;SDS011;51446;53.850;10.662;2023-02-10T10:54:04;39.15;;;14.77;;
64932;SDS011;51446;53.850;10.662;2023-02-10T10:56:36;43.17;;;14.43;;
64932;SDS011;51446;53.850;10.662;2023-02-10T10:59:12;46.47;;;15.75;;
64932;SDS011;51446;53.850;10.662;2023-02-10T11:01:45;42.03;;;15.93;;
64932;SDS011;51446;53.850;10.662;2023-02-10T11:04:13;41.13;;;14.77;;
64932;SDS011;51446;53.850;10.662;2023-02-10T11:06:49;39.22;;;14.20;;
64932;SDS011;51446;53.850;10.662;2023-02-10T11:09:19;34.30;;;14.80;;
64932;SDS011;51446;53.850;10.662;2023-02-10T11:11:54;39.67;;;15.85;;
64932;SDS011;51446;53.850;10.662;2023-02-10T11:14:27;40.95;;;15.52;;
64932;SDS011;51446;53.850;10.662;2023-02-10T11:16:57;40.80;;;16.20;;
64932;SDS011;51446;53.850;10.662;2023-02-10T11:19:28;40.38;;;15.52;;
64932;SDS011;51446;53.850;10.662;2023-02-10T11:21:55;33.83;;;15.87;;
64932;SDS011;51446;53.850;10.662;2023-02-10T11:24:28;46.58;;;16.02;;
64932;SDS011;51446;53.850;10.662;2023-02-10T11:29:26;38.40;;;15.05;;
64932;SDS011;51446;53.850;10.662;2023-02-10T11:31:53;37.63;;;15.70;;
64932;SDS011;51446;53.850;10.662;2023-02-10T11:34:38;53.30;;;15.77;;
64932;SDS011;51446;53.850;10.662;2023-02-10T11:37:10;39.63;;;16.00;;
64932;SDS011;51446;53.850;10.662;2023-02-10T11:39:38;40.93;;;15.87;;
64932;SDS011;51446;53.850;10.662;2023-02-10T11:42:14;41.67;;;15.15;;
64932;SDS011;51446;53.850;10.662;2023-02-10T11:45:15;36.53;;;15.50;;
64932;SDS011;51446;53.850;10.662;2023-02-10T11:47:45;32.63;;;12.80;;
64932;SDS011;51446;53.850;10.662;2023-02-10T11:50:25;30.97;;;12.80;;
64932;SDS011;51446;53.850;10.662;2023-02-10T11:52:52;32.08;;;12.20;;
64932;SDS011;51446;53.850;10.662;2023-02-10T11:55:17;35.27;;;11.83;;
64932;SDS011;51446;53.850;10.662;2023-02-10T12:01:07;35.63;;;12.80;;
64932;SDS011;51446;53.850;10.662;2023-02-10T12:06:25;29.07;;;10.83;;
64932;SDS011;51446;53.850;10.662;2023-02-10T12:09:02;28.25;;;11.38;;
64932;SDS011;51446;53.850;10.662;2023-02-10T12:11:41;29.92;;;12.15;;
64932;SDS011;51446;53.850;10.662;2023-02-10T12:23:09;29.35;;;11.48;;
64932;SDS011;51446;53.850;10.662;2023-02-10T12:36:33;27.73;;;11.93;;
64932;SDS011;51446;53.850;10.662;2023-02-10T12:39:18;28.08;;;11.75;;
64932;SDS011;51446;53.850;10.662;2023-02-10T12:47:42;27.97;;;10.87;;
64932;SDS011;51446;53.850;10.662;2023-02-10T12:53:14;30.48;;;11.65;;
64932;SDS011;51446;53.850;10.662;2023-02-10T12:55:55;35.42;;;12.38;;
64932;SDS011;51446;53.850;10.662;2023-02-10T12:58:45;32.63;;;12.65;;
64932;SDS011;51446;53.850;10.662;2023-02-10T13:03:56;24.33;;;11.88;;
64932;SDS011;51446;53.850;10.662;2023-02-10T13:06:36;34.67;;;12.30;;
64932;SDS011;51446;53.850;10.662;2023-02-10T13:11:48;29.65;;;12.45;;
64932;SDS011;51446;53.850;10.662;2023-02-10T13:14:36;29.80;;;12.33;;
64932;SDS011;51446;53.850;10.662;2023-02-10T13:17:04;27.45;;;12.40;;
64932;SDS011;51446;53.850;10.662;2023-02-10T13:19:33;36.30;;;12.97;;
64932;SDS011;51446;53.850;10.662;2023-02-10T13:25:09;29.92;;;12.68;;
64932;SDS011;51446;53.850;10.662;2023-02-10T13:30:15;29.73;;;12.87;;
64932;SDS011;51446;53.850;10.662;2023-02-10T13:35:51;30.00;;;12.82;;
64932;SDS011;51446;53.850;10.662;2023-02-10T13:38:18;23.70;;;11.07;;
64932;SDS011;51446;53.850;10.662;2023-02-10T13:43:38;29.27;;;13.60;;
64932;SDS011;51446;53.850;10.662;2023-02-10T13:46:04;29.13;;;14.03;;
64932;SDS011;51446;53.850;10.662;2023-02-10T13:48:32;29.50;;;13.07;;
64932;SDS011;51446;53.850;10.662;2023-02-10T13:51:00;30.75;;;11.85;;
64932;SDS011;51446;53.850;10.662;2023-02-10T14:04:02;26.27;;;11.27;;
64932;SDS011;51446;53.850;10.662;2023-02-10T14:06:32;19.40;;;11.85;;
64932;SDS011;51446;53.850;10.662;2023-02-10T14:09:05;25.95;;;11.85;;
64932;SDS011;51446;53.850;10.662;2023-02-10T14:11:42;26.83;;;12.50;;
64932;SDS011;51446;53.850;10.662;2023-02-10T14:14:17;24.05;;;12.02;;
64932;SDS011;51446;53.850;10.662;2023-02-10T14:17:27;28.13;;;12.20;;
64932;SDS011;51446;53.850;10.662;2023-02-10T14:19:55;24.35;;;12.18;;
64932;SDS011;51446;53.850;10.662;2023-02-10T14:24:55;25.35;;;12.05;;
64932;SDS011;51446;53.850;10.662;2023-02-10T14:27:24;34.80;;;16.55;;
64932;SDS011;51446;53.850;10.662;2023-02-10T14:30:15;29.17;;;12.85;;
64932;SDS011;51446;53.850;10.662;2023-02-10T14:32:44;23.92;;;11.57;;
64932;SDS011;51446;53.850;10.662;2023-02-10T14:35:17;25.50;;;13.52;;
64932;SDS011;51446;53.850;10.662;2023-02-10T14:37:50;20.10;;;9.67;;
64932;SDS011;51446;53.850;10.662;2023-02-10T14:40:17;26.52;;;8.50;;
64932;SDS011;51446;53.850;10.662;2023-02-10T14:42:43;21.52;;;8.07;;
64932;SDS011;51446;53.850;10.662;2023-02-10T14:45:19;14.60;;;7.68;;
64932;SDS011;51446;53.850;10.662;2023-02-10T14:47:47;16.43;;;8.30;;
64932;SDS011;51446;53.850;10.662;2023-02-10T14:50:30;12.77;;;6.57;;
64932;SDS011;51446;53.850;10.662;2023-02-10T14:52:57;18.10;;;6.72;;
64932;SDS011;51446;53.850;10.662;2023-02-10T14:55:25;21.08;;;8.02;;
64932;SDS011;51446;53.850;10.662;2023-02-10T14:57:51;18.67;;;6.80;;
64932;SDS011;51446;53.850;10.662;2023-02-10T15:00:16;18.47;;;7.57;;
64932;SDS011;51446;53.850;10.662;2023-02-10T15:02:45;20.17;;;6.77;;
64932;SDS011;51446;53.850;10.662;2023-02-10T15:05:16;19.00;;;7.00;;
64932;SDS011;51446;53.850;10.662;2023-02-10T15:07:44;17.42;;;6.63;;
64932;SDS011;51446;53.850;10.662;2023-02-10T15:12:45;20.38;;;6.90;;
64932;SDS011;51446;53.850;10.662;2023-02-10T15:15:28;18.10;;;6.47;;
64932;SDS011;51446;53.850;10.662;2023-02-10T15:17:59;14.00;;;6.88;;
64932;SDS011;51446;53.850;10.662;2023-02-10T15:20:28;11.55;;;6.47;;
64932;SDS011;51446;53.850;10.662;2023-02-10T15:27:59;11.93;;;5.80;;
64932;SDS011;51446;53.850;10.662;2023-02-10T15:30:45;16.25;;;6.65;;
64932;SDS011;51446;53.850;10.662;2023-02-10T15:38:34;17.50;;;6.10;;
64932;SDS011;51446;53.850;10.662;2023-02-10T15:41:18;13.43;;;6.50;;
64932;SDS011;51446;53.850;10.662;2023-02-10T15:43:51;16.83;;;6.80;;
64932;SDS011;51446;53.850;10.662;2023-02-10T15:46:16;14.77;;;6.90;;
64932;SDS011;51446;53.850;10.662;2023-02-10T15:48:43;16.75;;;6.50;;
64932;SDS011;51446;53.850;10.662;2023-02-10T15:51:10;13.77;;;6.70;;
64932;SDS011;51446;53.850;10.662;2023-02-10T15:53:51;21.45;;;7.55;;
64932;SDS011;51446;53.850;10.662;2023-02-10T15:56:21;16.98;;;7.60;;
64932;SDS011;51446;53.850;10.662;2023-02-10T15:58:47;18.73;;;7.53;;
64932;SDS011;51446;53.850;10.662;2023-02-10T16:01:13;18.07;;;7.77;;
64932;SDS011;51446;53.850;10.662;2023-02-10T16:03:38;16.33;;;7.57;;
64932;SDS011;51446;53.850;10.662;2023-02-10T16:06:03;19.07;;;8.13;;
64932;SDS011;51446;53.850;10.662;2023-02-10T16:08:29;18.33;;;8.63;;
64932;SDS011;51446;53.850;10.662;2023-02-10T16:10:55;17.63;;;8.07;;